createdAt,value
2017-06-24T00:00:29.970Z,1011.43
2017-06-24T00:01:10.512Z,1011.42
2017-06-24T00:01:51.051Z,1011.39
2017-06-24T00:02:31.596Z,1011.42
2017-06-24T00:03:12.132Z,1011.4
2017-06-24T00:03:52.666Z,1011.39
2017-06-24T00:04:33.198Z,1011.39
2017-06-24T00:05:13.727Z,1011.36
2017-06-24T00:05:54.267Z,1011.39
2017-06-24T00:06:34.809Z,1011.38
2017-06-24T00:07:15.355Z,1011.39
2017-06-24T00:07:55.894Z,1011.39
2017-06-24T00:08:36.433Z,1011.46
2017-06-24T00:09:16.969Z,1011.44
2017-06-24T00:09:57.502Z,1011.46
2017-06-24T00:10:38.042Z,1011.49
2017-06-24T00:11:18.579Z,1011.48
2017-06-24T00:11:59.125Z,1011.52
2017-06-24T00:12:39.674Z,1011.5
2017-06-24T00:13:20.223Z,1011.51
2017-06-24T00:14:00.765Z,1011.47
2017-06-24T00:14:41.293Z,1011.49
2017-06-24T00:15:21.822Z,1011.49
2017-06-24T00:16:02.369Z,1011.49
2017-06-24T00:16:42.899Z,1011.55
2017-06-24T00:17:23.447Z,1011.51
2017-06-24T00:18:03.991Z,1011.5
2017-06-24T00:18:44.555Z,1011.49
2017-06-24T00:19:25.105Z,1011.51
2017-06-24T00:20:05.638Z,1011.52
2017-06-24T00:20:46.184Z,1011.48
2017-06-24T00:21:26.727Z,1011.5
2017-06-24T00:22:07.269Z,1011.52
2017-06-24T00:22:47.809Z,1011.5
2017-06-24T00:23:28.351Z,1011.54
2017-06-24T00:24:08.913Z,1011.54
2017-06-24T00:24:49.463Z,1011.54
2017-06-24T00:25:30.006Z,1011.6
2017-06-24T00:26:10.536Z,1011.6
2017-06-24T00:26:51.067Z,1011.53
2017-06-24T00:27:31.611Z,1011.59
2017-06-24T00:28:12.167Z,1011.53
2017-06-24T00:28:52.710Z,1011.54
2017-06-24T00:29:33.242Z,1011.57
2017-06-24T00:30:13.778Z,1011.54
2017-06-24T00:30:54.334Z,1011.54
2017-06-24T00:31:34.851Z,1011.55
2017-06-24T00:32:15.411Z,1011.59
2017-06-24T00:32:55.902Z,1011.58
2017-06-24T00:33:36.444Z,1011.56
2017-06-24T00:34:16.982Z,1011.58
2017-06-24T00:34:57.532Z,1011.58
2017-06-24T00:35:38.075Z,1011.61
2017-06-24T00:36:18.599Z,1011.61
2017-06-24T00:36:59.143Z,1011.6
2017-06-24T00:37:39.684Z,1011.62
2017-06-24T00:38:20.226Z,1011.61
2017-06-24T00:39:00.782Z,1011.65
2017-06-24T00:39:41.308Z,1011.67
2017-06-24T00:40:21.852Z,1011.61
2017-06-24T00:41:02.393Z,1011.66
2017-06-24T00:41:42.931Z,1011.67
2017-06-24T00:42:23.485Z,1011.67
2017-06-24T00:43:04.025Z,1011.73
2017-06-24T00:43:44.573Z,1011.69
2017-06-24T00:44:25.094Z,1011.71
2017-06-24T00:45:05.644Z,1011.73
2017-06-24T00:45:46.170Z,1011.71
2017-06-24T00:46:26.727Z,1011.7
2017-06-24T00:47:07.269Z,1011.68
2017-06-24T00:47:47.810Z,1011.64
2017-06-24T00:48:28.351Z,1011.65
2017-06-24T00:49:08.923Z,1011.64
2017-06-24T00:49:49.463Z,1011.68
2017-06-24T00:50:29.985Z,1011.66
2017-06-24T00:51:10.507Z,1011.65
2017-06-24T00:51:51.050Z,1011.61
2017-06-24T00:52:31.596Z,1011.59
2017-06-24T00:53:12.126Z,1011.58
2017-06-24T00:53:52.666Z,1011.59
2017-06-24T00:54:33.208Z,1011.61
2017-06-24T00:55:13.755Z,1011.67
2017-06-24T00:55:54.298Z,1011.63
2017-06-24T00:56:34.827Z,1011.66
2017-06-24T00:57:15.356Z,1011.67
2017-06-24T00:57:55.890Z,1011.62
2017-06-24T00:58:36.433Z,1011.71
2017-06-24T00:59:16.964Z,1011.64
2017-06-24T00:59:57.497Z,1011.7
2017-06-24T01:00:38.037Z,1011.64
2017-06-24T01:01:18.571Z,1011.65
2017-06-24T01:01:59.108Z,1011.64
2017-06-24T01:02:39.648Z,1011.6
2017-06-24T01:03:20.181Z,1011.62
2017-06-24T01:04:00.710Z,1011.61
2017-06-24T01:04:41.255Z,1011.61
2017-06-24T01:05:21.774Z,1011.61
2017-06-24T01:06:02.318Z,1011.58
2017-06-24T01:06:42.852Z,1011.59
2017-06-24T01:07:23.388Z,1011.57
2017-06-24T01:08:03.934Z,1011.6
2017-06-24T01:08:44.479Z,1011.58
2017-06-24T01:09:25.016Z,1011.6
2017-06-24T01:10:05.554Z,1011.6
2017-06-24T01:10:46.100Z,1011.57
2017-06-24T01:11:26.637Z,1011.57
2017-06-24T01:12:07.173Z,1011.58
2017-06-24T01:12:47.718Z,1011.6
2017-06-24T01:13:28.255Z,1011.57
2017-06-24T01:14:08.806Z,1011.6
2017-06-24T01:14:49.344Z,1011.61
2017-06-24T01:15:29.884Z,1011.59
2017-06-24T01:16:10.435Z,1011.64
2017-06-24T01:16:50.967Z,1011.65
2017-06-24T01:17:31.507Z,1011.62
2017-06-24T01:18:12.042Z,1011.64
2017-06-24T01:18:52.579Z,1011.64
2017-06-24T01:19:33.116Z,1011.68
2017-06-24T01:20:13.668Z,1011.72
2017-06-24T01:20:54.226Z,1011.67
2017-06-24T01:21:34.762Z,1011.69
2017-06-24T01:22:15.312Z,1011.67
2017-06-24T01:22:55.848Z,1011.7
2017-06-24T01:23:36.382Z,1011.71
2017-06-24T01:24:16.921Z,1011.72
2017-06-24T01:24:57.464Z,1011.72
2017-06-24T01:25:37.988Z,1011.71
2017-06-24T01:26:18.541Z,1011.69
2017-06-24T01:26:59.076Z,1011.71
2017-06-24T01:27:39.609Z,1011.71
2017-06-24T01:28:20.150Z,1011.7
2017-06-24T01:29:00.687Z,1011.68
2017-06-24T01:29:41.225Z,1011.71
2017-06-24T01:30:21.755Z,1011.71
2017-06-24T01:31:02.288Z,1011.72
2017-06-24T01:31:42.836Z,1011.73
2017-06-24T01:32:23.357Z,1011.74
2017-06-24T01:33:03.904Z,1011.74
2017-06-24T01:33:44.452Z,1011.72
2017-06-24T01:34:24.994Z,1011.72
2017-06-24T01:35:05.532Z,1011.73
2017-06-24T01:35:46.058Z,1011.74
2017-06-24T01:36:26.589Z,1011.71
2017-06-24T01:37:07.126Z,1011.71
2017-06-24T01:37:47.679Z,1011.7
2017-06-24T01:38:28.211Z,1011.74
2017-06-24T01:39:08.755Z,1011.74
2017-06-24T01:39:49.297Z,1011.76
2017-06-24T01:40:29.838Z,1011.76
2017-06-24T01:41:10.376Z,1011.77
2017-06-24T01:41:50.904Z,1011.77
2017-06-24T01:42:31.448Z,1011.73
2017-06-24T01:43:11.986Z,1011.74
2017-06-24T01:43:52.523Z,1011.77
2017-06-24T01:44:33.068Z,1011.78
2017-06-24T01:45:13.616Z,1011.76
2017-06-24T01:45:54.151Z,1011.8
2017-06-24T01:46:34.697Z,1011.81
2017-06-24T01:47:15.239Z,1011.82
2017-06-24T01:47:55.783Z,1011.83
2017-06-24T01:48:36.308Z,1011.8
2017-06-24T01:49:16.851Z,1011.82
2017-06-24T01:49:57.394Z,1011.82
2017-06-24T01:50:37.933Z,1011.83
2017-06-24T01:51:18.473Z,1011.85
2017-06-24T01:51:59.021Z,1011.88
2017-06-24T01:52:39.561Z,1011.82
2017-06-24T01:53:20.100Z,1011.87
2017-06-24T01:54:00.647Z,1011.87
2017-06-24T01:54:41.191Z,1011.87
2017-06-24T01:55:21.719Z,1011.86
2017-06-24T01:56:02.265Z,1011.9
2017-06-24T01:56:42.799Z,1011.89
2017-06-24T01:57:23.338Z,1011.92
2017-06-24T01:58:03.879Z,1011.9
2017-06-24T01:58:44.430Z,1011.91
2017-06-24T01:59:24.967Z,1011.88
2017-06-24T02:00:05.503Z,1011.91
2017-06-24T02:00:46.046Z,1011.9
2017-06-24T02:01:26.575Z,1011.89
2017-06-24T02:02:07.113Z,1011.92
2017-06-24T02:02:47.651Z,1011.92
2017-06-24T02:03:28.203Z,1011.89
2017-06-24T02:04:08.738Z,1011.91
2017-06-24T02:04:49.276Z,1011.9
2017-06-24T02:05:29.824Z,1011.89
2017-06-24T02:06:10.360Z,1011.9
2017-06-24T02:06:50.904Z,1011.88
2017-06-24T02:07:31.435Z,1011.86
2017-06-24T02:08:11.958Z,1011.9
2017-06-24T02:08:52.499Z,1011.88
2017-06-24T02:09:33.040Z,1011.86
2017-06-24T02:10:13.581Z,1011.82
2017-06-24T02:10:54.115Z,1011.87
2017-06-24T02:11:34.655Z,1011.85
2017-06-24T02:12:15.180Z,1011.78
2017-06-24T02:12:55.719Z,1011.78
2017-06-24T02:13:36.260Z,1011.85
2017-06-24T02:14:16.856Z,1011.83
2017-06-24T02:14:57.344Z,1011.81
2017-06-24T02:15:37.883Z,1011.78
2017-06-24T02:16:18.422Z,1011.82
2017-06-24T02:16:58.964Z,1011.79
2017-06-24T02:17:39.486Z,1011.82
2017-06-24T02:18:20.030Z,1011.83
2017-06-24T02:19:00.567Z,1011.79
2017-06-24T02:19:41.108Z,1011.82
2017-06-24T02:20:21.649Z,1011.82
2017-06-24T02:21:02.197Z,1011.8
2017-06-24T02:21:42.737Z,1011.73
2017-06-24T02:22:23.277Z,1011.78
2017-06-24T02:23:03.820Z,1011.78
2017-06-24T02:23:44.355Z,1011.78
2017-06-24T02:24:24.884Z,1011.79
2017-06-24T02:25:05.424Z,1011.77
2017-06-24T02:25:45.963Z,1011.78
2017-06-24T02:26:26.505Z,1011.81
2017-06-24T02:27:07.043Z,1011.76
2017-06-24T02:27:47.584Z,1011.73
2017-06-24T02:28:28.124Z,1011.78
2017-06-24T02:29:08.659Z,1011.71
2017-06-24T02:29:49.198Z,1011.78
2017-06-24T02:30:29.730Z,1011.78
2017-06-24T02:31:10.279Z,1011.76
2017-06-24T02:31:50.820Z,1011.75
2017-06-24T02:32:31.365Z,1011.76
2017-06-24T02:33:11.897Z,1011.72
2017-06-24T02:33:52.437Z,1011.73
2017-06-24T02:34:32.968Z,1011.76
2017-06-24T02:35:13.503Z,1011.73
2017-06-24T02:35:54.038Z,1011.71
2017-06-24T02:36:34.574Z,1011.7
2017-06-24T02:37:15.115Z,1011.72
2017-06-24T02:37:55.664Z,1011.74
2017-06-24T02:38:36.205Z,1011.73
2017-06-24T02:39:16.752Z,1011.69
2017-06-24T02:39:57.293Z,1011.71
2017-06-24T02:40:37.835Z,1011.75
2017-06-24T02:41:18.370Z,1011.7
2017-06-24T02:41:58.906Z,1011.72
2017-06-24T02:42:39.439Z,1011.72
2017-06-24T02:43:19.981Z,1011.69
2017-06-24T02:44:00.522Z,1011.7
2017-06-24T02:44:41.069Z,1011.72
2017-06-24T02:45:21.608Z,1011.71
2017-06-24T02:46:02.150Z,1011.71
2017-06-24T02:46:42.698Z,1011.73
2017-06-24T02:47:23.239Z,1011.71
2017-06-24T02:48:03.778Z,1011.67
2017-06-24T02:48:44.314Z,1011.72
2017-06-24T02:49:24.864Z,1011.7
2017-06-24T02:50:05.398Z,1011.68
2017-06-24T02:50:45.946Z,1011.68
2017-06-24T02:51:26.481Z,1011.65
2017-06-24T02:52:07.027Z,1011.67
2017-06-24T02:52:47.565Z,1011.67
2017-06-24T02:53:28.108Z,1011.65
2017-06-24T02:54:08.652Z,1011.65
2017-06-24T02:54:49.197Z,1011.63
2017-06-24T02:55:29.737Z,1011.61
2017-06-24T02:56:10.271Z,1011.62
2017-06-24T02:56:50.820Z,1011.63
2017-06-24T02:57:31.341Z,1011.63
2017-06-24T02:58:11.886Z,1011.6
2017-06-24T02:58:52.425Z,1011.6
2017-06-24T02:59:32.962Z,1011.63
2017-06-24T03:00:13.506Z,1011.59
2017-06-24T03:00:54.055Z,1011.63
2017-06-24T03:01:34.579Z,1011.56
2017-06-24T03:02:15.115Z,1011.62
2017-06-24T03:02:55.748Z,1011.55
2017-06-24T03:03:36.278Z,1011.59
2017-06-24T03:04:16.819Z,1011.6
2017-06-24T03:04:57.360Z,1011.58
2017-06-24T03:05:37.894Z,1011.57
2017-06-24T03:06:18.433Z,1011.56
2017-06-24T03:06:58.969Z,1011.5
2017-06-24T03:07:39.517Z,1011.54
2017-06-24T03:08:20.048Z,1011.52
2017-06-24T03:09:00.599Z,1011.53
2017-06-24T03:09:41.137Z,1011.56
2017-06-24T03:10:21.674Z,1011.55
2017-06-24T03:11:02.215Z,1011.49
2017-06-24T03:11:42.753Z,1011.48
2017-06-24T03:12:23.290Z,1011.49
2017-06-24T03:13:03.835Z,1011.51
2017-06-24T03:13:44.372Z,1011.5
2017-06-24T03:14:24.925Z,1011.53
2017-06-24T03:15:05.455Z,1011.53
2017-06-24T03:15:46.002Z,1011.53
2017-06-24T03:16:26.539Z,1011.54
2017-06-24T03:17:07.080Z,1011.53
2017-06-24T03:17:47.626Z,1011.54
2017-06-24T03:18:28.160Z,1011.49
2017-06-24T03:19:08.695Z,1011.5
2017-06-24T03:19:49.228Z,1011.49
2017-06-24T03:20:29.778Z,1011.49
2017-06-24T03:21:10.314Z,1011.47
2017-06-24T03:21:50.862Z,1011.46
2017-06-24T03:22:31.429Z,1011.45
2017-06-24T03:23:11.962Z,1011.44
2017-06-24T03:23:52.501Z,1011.44
2017-06-24T03:24:33.050Z,1011.43
2017-06-24T03:25:13.582Z,1011.4
2017-06-24T03:25:54.122Z,1011.37
2017-06-24T03:26:34.647Z,1011.37
2017-06-24T03:27:15.184Z,1011.36
2017-06-24T03:27:55.729Z,1011.39
2017-06-24T03:28:36.264Z,1011.37
2017-06-24T03:29:16.798Z,1011.37
2017-06-24T03:29:57.340Z,1011.36
2017-06-24T03:30:37.869Z,1011.36
2017-06-24T03:31:18.408Z,1011.39
2017-06-24T03:31:58.943Z,1011.38
2017-06-24T03:32:39.481Z,1011.38
2017-06-24T03:33:20.026Z,1011.37
2017-06-24T03:34:00.573Z,1011.37
2017-06-24T03:34:41.111Z,1011.36
2017-06-24T03:35:21.650Z,1011.38
2017-06-24T03:36:02.163Z,1011.39
2017-06-24T03:36:42.702Z,1011.35
2017-06-24T03:37:23.243Z,1011.36
2017-06-24T03:38:03.778Z,1011.34
2017-06-24T03:38:44.318Z,1011.37
2017-06-24T03:39:24.874Z,1011.37
2017-06-24T03:40:05.410Z,1011.4
2017-06-24T03:40:45.942Z,1011.42
2017-06-24T03:41:26.480Z,1011.39
2017-06-24T03:42:07.018Z,1011.39
2017-06-24T03:42:47.558Z,1011.37
2017-06-24T03:43:28.108Z,1011.34
2017-06-24T03:44:08.639Z,1011.37
2017-06-24T03:44:49.184Z,1011.37
2017-06-24T03:45:29.723Z,1011.38
2017-06-24T03:46:10.270Z,1011.34
2017-06-24T03:46:50.812Z,1011.35
2017-06-24T03:47:31.348Z,1011.36
2017-06-24T03:48:11.876Z,1011.35
2017-06-24T03:48:52.415Z,1011.37
2017-06-24T03:49:32.941Z,1011.37
2017-06-24T03:50:13.489Z,1011.35
2017-06-24T03:50:54.027Z,1011.31
2017-06-24T03:51:34.574Z,1011.34
2017-06-24T03:52:15.128Z,1011.31
2017-06-24T03:52:55.650Z,1011.3
2017-06-24T03:53:36.191Z,1011.32
2017-06-24T03:54:16.729Z,1011.33
2017-06-24T03:54:57.275Z,1011.32
2017-06-24T03:55:37.817Z,1011.28
2017-06-24T03:56:18.362Z,1011.26
2017-06-24T03:56:58.903Z,1011.23
2017-06-24T03:57:39.444Z,1011.26
2017-06-24T03:58:19.994Z,1011.25
2017-06-24T03:59:00.520Z,1011.22
2017-06-24T03:59:41.065Z,1011.25
2017-06-24T04:00:21.605Z,1011.24
2017-06-24T04:01:02.146Z,1011.23
2017-06-24T04:01:42.681Z,1011.24
2017-06-24T04:02:23.229Z,1011.24
2017-06-24T04:03:03.772Z,1011.23
2017-06-24T04:03:44.308Z,1011.22
2017-06-24T04:04:24.854Z,1011.26
2017-06-24T04:05:05.385Z,1011.26
2017-06-24T04:05:45.925Z,1011.26
2017-06-24T04:06:26.469Z,1011.27
2017-06-24T04:07:06.982Z,1011.27
2017-06-24T04:07:47.531Z,1011.28
2017-06-24T04:08:28.063Z,1011.3
2017-06-24T04:09:08.603Z,1011.32
2017-06-24T04:09:49.144Z,1011.31
2017-06-24T04:10:29.679Z,1011.36
2017-06-24T04:11:10.197Z,1011.35
2017-06-24T04:11:50.727Z,1011.38
2017-06-24T04:12:31.278Z,1011.36
2017-06-24T04:13:11.797Z,1011.37
2017-06-24T04:13:52.336Z,1011.36
2017-06-24T04:14:32.865Z,1011.37
2017-06-24T04:15:13.431Z,1011.34
2017-06-24T04:15:53.956Z,1011.33
2017-06-24T04:16:34.504Z,1011.34
2017-06-24T04:17:15.045Z,1011.3
2017-06-24T04:17:55.584Z,1011.3
2017-06-24T04:18:36.123Z,1011.32
2017-06-24T04:19:16.664Z,1011.31
2017-06-24T04:19:57.203Z,1011.39
2017-06-24T04:20:37.741Z,1011.3
2017-06-24T04:21:18.298Z,1011.34
2017-06-24T04:21:58.845Z,1011.27
2017-06-24T04:22:39.391Z,1011.29
2017-06-24T04:23:19.937Z,1011.3
2017-06-24T04:24:00.470Z,1011.27
2017-06-24T04:24:41.131Z,1011.29
2017-06-24T04:25:21.677Z,1011.3
2017-06-24T04:26:02.215Z,1011.29
2017-06-24T04:26:42.747Z,1011.28
2017-06-24T04:27:23.293Z,1011.28
2017-06-24T04:28:03.837Z,1011.25
2017-06-24T04:28:44.381Z,1011.26
2017-06-24T04:29:24.927Z,1011.25
2017-06-24T04:30:05.469Z,1011.2
2017-06-24T04:30:46.015Z,1011.22
2017-06-24T04:31:26.559Z,1011.19
2017-06-24T04:32:07.079Z,1011.21
2017-06-24T04:32:47.632Z,1011.19
2017-06-24T04:33:28.170Z,1011.2
2017-06-24T04:34:08.716Z,1011.2
2017-06-24T04:34:49.252Z,1011.16
2017-06-24T04:35:29.788Z,1011.18
2017-06-24T04:36:10.336Z,1011.17
2017-06-24T04:36:50.884Z,1011.18
2017-06-24T04:37:31.423Z,1011.2
2017-06-24T04:38:11.962Z,1011.14
2017-06-24T04:38:52.503Z,1011.2
2017-06-24T04:39:33.032Z,1011.21
2017-06-24T04:40:13.579Z,1011.21
2017-06-24T04:40:54.129Z,1011.2
2017-06-24T04:41:34.663Z,1011.21
2017-06-24T04:42:15.194Z,1011.22
2017-06-24T04:42:55.738Z,1011.25
2017-06-24T04:43:36.276Z,1011.26
2017-06-24T04:44:16.796Z,1011.27
2017-06-24T04:44:57.337Z,1011.25
2017-06-24T04:45:37.882Z,1011.28
2017-06-24T04:46:18.414Z,1011.25
2017-06-24T04:46:58.950Z,1011.31
2017-06-24T04:47:39.503Z,1011.26
2017-06-24T04:48:20.035Z,1011.27
2017-06-24T04:49:00.580Z,1011.28
2017-06-24T04:49:41.137Z,1011.28
2017-06-24T04:50:21.674Z,1011.24
2017-06-24T04:51:02.210Z,1011.28
2017-06-24T04:51:42.746Z,1011.28
2017-06-24T04:52:23.285Z,1011.28
2017-06-24T04:53:03.852Z,1011.28
2017-06-24T04:53:44.376Z,1011.27
2017-06-24T04:54:24.912Z,1011.26
2017-06-24T04:55:05.456Z,1011.25
2017-06-24T04:55:45.972Z,1011.23
2017-06-24T04:56:26.509Z,1011.21
2017-06-24T04:57:07.045Z,1011.24
2017-06-24T04:57:47.554Z,1011.24
2017-06-24T04:58:28.082Z,1011.26
2017-06-24T04:59:08.599Z,1011.25
2017-06-24T04:59:49.140Z,1011.28
2017-06-24T05:00:29.663Z,1011.27
2017-06-24T05:01:10.201Z,1011.24
2017-06-24T05:01:50.740Z,1011.23
2017-06-24T05:02:31.274Z,1011.21
2017-06-24T05:03:11.813Z,1011.19
2017-06-24T05:03:52.338Z,1011.22
2017-06-24T05:04:32.857Z,1011.21
2017-06-24T05:05:13.393Z,1011.23
2017-06-24T05:05:53.936Z,1011.22
2017-06-24T05:06:34.452Z,1011.23
2017-06-24T05:07:15.011Z,1011.21
2017-06-24T05:07:55.531Z,1011.23
2017-06-24T05:08:36.069Z,1011.27
2017-06-24T05:09:16.608Z,1011.24
2017-06-24T05:09:57.152Z,1011.26
2017-06-24T05:10:37.704Z,1011.27
2017-06-24T05:11:18.205Z,1011.27
2017-06-24T05:11:58.753Z,1011.25
2017-06-24T05:12:39.266Z,1011.26
2017-06-24T05:13:19.794Z,1011.25
2017-06-24T05:14:00.340Z,1011.2
2017-06-24T05:14:40.883Z,1011.19
2017-06-24T05:15:21.407Z,1011.21
2017-06-24T05:16:01.923Z,1011.2
2017-06-24T05:16:42.461Z,1011.2
2017-06-24T05:17:23.003Z,1011.24
2017-06-24T05:18:03.552Z,1011.23
2017-06-24T05:18:44.111Z,1011.25
2017-06-24T05:19:24.647Z,1011.2
2017-06-24T05:20:05.178Z,1011.25
2017-06-24T05:20:45.711Z,1011.26
2017-06-24T05:21:26.251Z,1011.23
2017-06-24T05:22:06.782Z,1011.22
2017-06-24T05:22:47.325Z,1011.18
2017-06-24T05:23:27.890Z,1011.19
2017-06-24T05:24:08.446Z,1011.18
2017-06-24T05:24:48.997Z,1011.14
2017-06-24T05:25:29.521Z,1011.14
2017-06-24T05:26:10.051Z,1011.13
2017-06-24T05:26:50.582Z,1011.08
2017-06-24T05:27:31.102Z,1011.05
2017-06-24T05:28:11.628Z,1011.04
2017-06-24T05:28:52.152Z,1011.04
2017-06-24T05:29:32.668Z,1011.03
2017-06-24T05:30:13.197Z,1011.05
2017-06-24T05:30:53.752Z,1011.05
2017-06-24T05:31:34.295Z,1011.07
2017-06-24T05:32:14.831Z,1011.06
2017-06-24T05:32:55.367Z,1011.06
2017-06-24T05:33:35.895Z,1011.06
2017-06-24T05:34:16.481Z,1011.03
2017-06-24T05:34:57.014Z,1011.01
2017-06-24T05:35:37.576Z,1011.03
2017-06-24T05:36:18.097Z,1011.03
2017-06-24T05:36:58.627Z,1011.01
2017-06-24T05:37:39.197Z,1011.04
2017-06-24T05:38:19.725Z,1011.03
2017-06-24T05:39:00.259Z,1011.01
2017-06-24T05:39:40.807Z,1010.98
2017-06-24T05:40:21.345Z,1010.99
2017-06-24T05:41:01.914Z,1010.96
2017-06-24T05:41:42.460Z,1010.96
2017-06-24T05:42:23.004Z,1011.01
2017-06-24T05:43:03.552Z,1010.96
2017-06-24T05:43:44.093Z,1010.95
2017-06-24T05:44:24.626Z,1011.02
2017-06-24T05:45:05.168Z,1011.02
2017-06-24T05:45:45.701Z,1010.99
2017-06-24T05:46:26.224Z,1010.97
2017-06-24T05:47:06.743Z,1010.99
2017-06-24T05:47:47.249Z,1010.97
2017-06-24T05:48:27.766Z,1010.98
2017-06-24T05:49:08.315Z,1010.99
2017-06-24T05:49:48.851Z,1011
2017-06-24T05:50:29.368Z,1010.96
2017-06-24T05:51:09.884Z,1011
2017-06-24T05:51:50.389Z,1010.93
2017-06-24T05:52:30.889Z,1011
2017-06-24T05:53:11.711Z,1010.95
2017-06-24T05:53:52.290Z,1010.92
2017-06-24T05:54:32.786Z,1010.93
2017-06-24T05:55:13.285Z,1010.96
2017-06-24T05:55:53.798Z,1010.95
2017-06-24T05:56:34.335Z,1010.95
2017-06-24T05:57:14.827Z,1010.91
2017-06-24T05:57:55.358Z,1010.93
2017-06-24T05:58:35.903Z,1010.94
2017-06-24T05:59:16.364Z,1010.95
2017-06-24T05:59:56.879Z,1010.96
2017-06-24T06:00:37.393Z,1011.01
2017-06-24T06:01:17.872Z,1010.97
2017-06-24T06:01:59.074Z,1010.98
2017-06-24T06:02:39.630Z,1010.96
2017-06-24T06:03:20.074Z,1010.97
2017-06-24T06:04:00.576Z,1010.98
2017-06-24T06:04:41.064Z,1010.93
2017-06-24T06:05:21.573Z,1010.96
2017-06-24T06:06:02.142Z,1010.96
2017-06-24T06:06:42.584Z,1010.94
2017-06-24T06:07:23.109Z,1011.01
2017-06-24T06:08:03.683Z,1010.93
2017-06-24T06:08:44.157Z,1011.02
2017-06-24T06:09:24.706Z,1010.91
2017-06-24T06:10:05.375Z,1010.92
2017-06-24T06:10:45.891Z,1010.96
2017-06-24T06:11:26.424Z,1010.94
2017-06-24T06:12:06.934Z,1011.01
2017-06-24T06:12:47.469Z,1010.94
2017-06-24T06:13:27.991Z,1010.91
2017-06-24T06:14:08.550Z,1010.94
2017-06-24T06:14:49.077Z,1010.93
2017-06-24T06:15:29.616Z,1010.91
2017-06-24T06:16:10.175Z,1010.93
2017-06-24T06:16:50.781Z,1010.95
2017-06-24T06:17:31.380Z,1010.95
2017-06-24T06:18:11.997Z,1010.94
2017-06-24T06:18:52.620Z,1010.96
2017-06-24T06:19:33.161Z,1010.93
2017-06-24T06:20:13.705Z,1010.93
2017-06-24T06:20:54.295Z,1010.92
2017-06-24T06:21:34.829Z,1011.01
2017-06-24T06:22:15.362Z,1011.02
2017-06-24T06:22:55.944Z,1011
2017-06-24T06:23:36.478Z,1010.98
2017-06-24T06:24:17.043Z,1010.97
2017-06-24T06:24:57.543Z,1011.02
2017-06-24T06:25:38.081Z,1011.08
2017-06-24T06:26:18.621Z,1010.99
2017-06-24T06:26:59.173Z,1011.01
2017-06-24T06:27:39.726Z,1010.97
2017-06-24T06:28:20.255Z,1010.96
2017-06-24T06:29:00.798Z,1010.94
2017-06-24T06:29:41.329Z,1010.96
2017-06-24T06:30:21.887Z,1010.95
2017-06-24T06:31:02.425Z,1010.95
2017-06-24T06:31:42.943Z,1010.93
2017-06-24T06:32:23.562Z,1010.94
2017-06-24T06:33:04.104Z,1011
2017-06-24T06:33:44.652Z,1010.98
2017-06-24T06:34:25.193Z,1011.06
2017-06-24T06:35:05.741Z,1011.01
2017-06-24T06:35:46.286Z,1011.01
2017-06-24T06:36:26.824Z,1010.96
2017-06-24T06:37:07.365Z,1011
2017-06-24T06:37:47.924Z,1010.96
2017-06-24T06:38:28.451Z,1011.03
2017-06-24T06:39:09.033Z,1010.94
2017-06-24T06:39:49.570Z,1010.94
2017-06-24T06:40:30.109Z,1010.92
2017-06-24T06:41:10.725Z,1011.01
2017-06-24T06:41:51.287Z,1011.03
2017-06-24T06:42:31.840Z,1011.05
2017-06-24T06:43:12.395Z,1010.95
2017-06-24T06:43:52.946Z,1010.97
2017-06-24T06:44:33.473Z,1010.95
2017-06-24T06:45:14.047Z,1010.92
2017-06-24T06:45:54.554Z,1010.9
2017-06-24T06:46:35.091Z,1010.92
2017-06-24T06:47:15.631Z,1010.9
2017-06-24T06:47:56.176Z,1010.94
2017-06-24T06:48:36.722Z,1010.96
2017-06-24T06:49:17.348Z,1010.86
2017-06-24T06:49:57.895Z,1010.95
2017-06-24T06:50:38.448Z,1010.94
2017-06-24T06:51:18.983Z,1010.94
2017-06-24T06:51:59.556Z,1010.95
2017-06-24T06:52:40.079Z,1010.99
2017-06-24T06:53:20.633Z,1011.05
2017-06-24T06:54:01.173Z,1011.01
2017-06-24T06:54:41.724Z,1011.02
2017-06-24T06:55:22.260Z,1010.99
2017-06-24T06:56:02.809Z,1011.01
2017-06-24T06:56:43.361Z,1011.02
2017-06-24T06:57:23.910Z,1010.98
2017-06-24T06:58:04.454Z,1010.98
2017-06-24T06:58:44.991Z,1011.05
2017-06-24T06:59:25.527Z,1010.97
2017-06-24T07:00:06.056Z,1010.99
2017-06-24T07:00:46.579Z,1011.07
2017-06-24T07:01:27.112Z,1011.05
2017-06-24T07:02:07.658Z,1011.01
2017-06-24T07:02:48.180Z,1011.01
2017-06-24T07:03:28.717Z,1011.26
2017-06-24T07:04:09.291Z,1011.07
2017-06-24T07:04:49.803Z,1011.08
2017-06-24T07:05:30.347Z,1011.06
2017-06-24T07:06:10.897Z,1011.11
2017-06-24T07:06:51.444Z,1011.13
2017-06-24T07:07:32.023Z,1011.11
2017-06-24T07:08:12.571Z,1011.09
2017-06-24T07:08:53.116Z,1011.12
2017-06-24T07:09:33.670Z,1011.15
2017-06-24T07:10:14.279Z,1011.09
2017-06-24T07:10:54.829Z,1011.07
2017-06-24T07:11:35.374Z,1011.12
2017-06-24T07:12:15.897Z,1011.04
2017-06-24T07:12:56.415Z,1011.05
2017-06-24T07:13:36.956Z,1011.03
2017-06-24T07:14:17.505Z,1011
2017-06-24T07:14:58.045Z,1011.07
2017-06-24T07:15:38.592Z,1011.07
2017-06-24T07:16:19.139Z,1011.05
2017-06-24T07:16:59.685Z,1011.05
2017-06-24T07:17:40.223Z,1011.09
2017-06-24T07:18:20.773Z,1011.08
2017-06-24T07:19:01.349Z,1011.12
2017-06-24T07:19:41.890Z,1011.13
2017-06-24T07:20:22.442Z,1011.09
2017-06-24T07:21:03.000Z,1011.16
2017-06-24T07:21:43.529Z,1011.13
2017-06-24T07:22:24.067Z,1011.15
2017-06-24T07:23:04.626Z,1011.2
2017-06-24T07:23:45.167Z,1011.09
2017-06-24T07:24:25.706Z,1011.1
2017-06-24T07:25:06.245Z,1011.08
2017-06-24T07:25:46.785Z,1011.07
2017-06-24T07:26:27.324Z,1011.09
2017-06-24T07:27:07.877Z,1011.11
2017-06-24T07:27:48.401Z,1011.08
2017-06-24T07:28:28.937Z,1011.08
2017-06-24T07:29:09.477Z,1011.14
2017-06-24T07:29:50.240Z,1011.07
2017-06-24T07:30:30.781Z,1011.08
2017-06-24T07:31:11.305Z,1011.12
2017-06-24T07:31:51.848Z,1011.16
2017-06-24T07:32:32.387Z,1011.07
2017-06-24T07:33:12.928Z,1011.1
2017-06-24T07:33:53.519Z,1011.08
2017-06-24T07:34:34.052Z,1011.06
2017-06-24T07:35:14.602Z,1011.07
2017-06-24T07:35:55.153Z,1011.11
2017-06-24T07:36:35.694Z,1011.06
2017-06-24T07:37:16.235Z,1011.16
2017-06-24T07:37:56.786Z,1011.11
2017-06-24T07:38:37.411Z,1011.09
2017-06-24T07:39:18.052Z,1011.13
2017-06-24T07:39:58.527Z,1011.15
2017-06-24T07:40:39.066Z,1011.17
2017-06-24T07:41:19.629Z,1011.14
2017-06-24T07:42:00.170Z,1011.15
2017-06-24T07:42:40.719Z,1011.19
2017-06-24T07:43:21.272Z,1011.16
2017-06-24T07:44:01.789Z,1011.15
2017-06-24T07:44:42.335Z,1011.17
2017-06-24T07:45:22.877Z,1011.18
2017-06-24T07:46:03.415Z,1011.13
2017-06-24T07:46:43.964Z,1011.13
2017-06-24T07:47:24.493Z,1011.13
2017-06-24T07:48:05.024Z,1011.15
2017-06-24T07:48:45.816Z,1011.14
2017-06-24T07:49:26.068Z,1011.06
2017-06-24T07:50:06.600Z,1011.05
2017-06-24T07:50:47.116Z,1011.07
2017-06-24T07:51:27.666Z,1011.04
2017-06-24T07:52:08.206Z,1011.04
2017-06-24T07:52:48.743Z,1011.17
2017-06-24T07:53:29.287Z,1011.17
2017-06-24T07:54:09.820Z,1011.11
2017-06-24T07:54:50.393Z,1011.1
2017-06-24T07:55:30.887Z,1011.09
2017-06-24T07:56:11.468Z,1011.03
2017-06-24T07:56:52.092Z,1011
2017-06-24T07:57:32.643Z,1010.99
2017-06-24T07:58:13.097Z,1011.05
2017-06-24T07:58:53.650Z,1011.02
2017-06-24T07:59:34.191Z,1011.05
2017-06-24T08:00:14.737Z,1011.06
2017-06-24T08:00:55.285Z,1011.05
2017-06-24T08:01:35.824Z,1011.01
2017-06-24T08:02:16.389Z,1011.06
2017-06-24T08:02:56.938Z,1011.01
2017-06-24T08:03:37.492Z,1010.99
2017-06-24T08:04:18.007Z,1010.97
2017-06-24T08:04:58.536Z,1011.02
2017-06-24T08:05:39.102Z,1010.93
2017-06-24T08:06:19.646Z,1011.13
2017-06-24T08:07:00.135Z,1011.11
2017-06-24T08:07:40.664Z,1011.02
2017-06-24T08:08:21.249Z,1011.12
2017-06-24T08:09:01.797Z,1011.03
2017-06-24T08:09:42.341Z,1011.05
2017-06-24T08:10:22.873Z,1011
2017-06-24T08:11:03.417Z,1011.01
2017-06-24T08:11:43.972Z,1010.98
2017-06-24T08:12:24.513Z,1010.89